Eastside, Mississippi
Current Conditions -  °F | °C
As of 7:53 PM on Sunday 21 Dec 2014 (Local Time) from KPQL Reporting Station
Overcast Overcast  
Wind Chill: 56°   Ceiling: 700
Heat Index: 56°   Visibility: 7mi
Dew Point: 54°   Wind: 3mph
Humidity: 93%   Direction: 80°E
Pressure: 30.01"   Gusts: NA
Location:  30.4156°N, 88.5348°W
Report Text: KPQL 220153Z AUTO 08003KT 7SM OVC007 13/12 A3001 RMK AO2 SLP164 T01330122 TSNO
Loading
Personal Weather Stations






























Interactive Weather Map New forecast layout! Learn more

10-Day Weather Forecast

Advertisements
Track Severe Weather on mobile